createdAt,value
2023-04-15T00:01:45.758Z,71.37
2023-04-15T00:04:12.340Z,71.69
2023-04-15T00:06:39.755Z,71.91
2023-04-15T00:09:06.255Z,71.94
2023-04-15T00:11:32.701Z,71.87
2023-04-15T00:13:59.272Z,71.48
2023-04-15T00:16:25.777Z,71.93
2023-04-15T00:18:52.412Z,71.96
2023-04-15T00:21:18.786Z,72.13
2023-04-15T00:23:45.259Z,72.74
2023-04-15T00:26:12.571Z,72.61
2023-04-15T00:28:39.271Z,73.38
2023-04-15T00:31:05.806Z,74.58
2023-04-15T00:33:32.732Z,74.73
2023-04-15T00:35:59.342Z,74.90
2023-04-15T00:38:25.820Z,75.47
2023-04-15T00:40:53.264Z,75.76
2023-04-15T00:43:20.157Z,76.17
2023-04-15T00:45:47.305Z,76.78
2023-04-15T00:48:14.247Z,76.46
2023-04-15T00:50:40.857Z,76.70
2023-04-15T00:53:07.284Z,76.67
2023-04-15T00:55:33.817Z,77.16
2023-04-15T00:58:00.502Z,77.27
2023-04-15T01:00:27.316Z,77.61
2023-04-15T01:02:53.950Z,77.54
2023-04-15T01:05:20.534Z,77.64
2023-04-15T01:07:48.630Z,77.15
2023-04-15T01:10:15.173Z,77.56
2023-04-15T01:12:43.306Z,77.67
2023-04-15T01:15:10.972Z,77.33
2023-04-15T01:17:38.117Z,77.60
2023-04-15T01:20:10.018Z,77.75
2023-04-15T01:22:36.474Z,78.46
2023-04-15T01:25:17.451Z,78.47
2023-04-15T01:27:44.116Z,78.84
2023-04-15T01:30:11.449Z,78.79
2023-04-15T01:32:38.513Z,79.01
2023-04-15T01:35:05.351Z,79.13
2023-04-15T01:37:32.429Z,79.50
2023-04-15T01:39:58.856Z,79.50
2023-04-15T01:42:25.267Z,79.84
2023-04-15T01:44:51.922Z,79.64
2023-04-15T01:47:18.501Z,79.73
2023-04-15T01:49:44.991Z,80.04
2023-04-15T01:52:11.407Z,80.46
2023-04-15T01:54:40.026Z,80.47
2023-04-15T01:57:06.475Z,81.04
2023-04-15T01:59:33.026Z,81.02
2023-04-15T02:02:00.393Z,81.59
2023-04-15T02:04:27.909Z,81.80
2023-04-15T02:06:54.480Z,81.54
2023-04-15T02:09:21.544Z,82.63
2023-04-15T02:11:47.985Z,83.04
2023-04-15T02:14:14.418Z,83.42
2023-04-15T02:16:41.215Z,83.75
2023-04-15T02:19:08.073Z,84.06
2023-04-15T02:21:37.321Z,84.59
2023-04-15T02:24:04.257Z,84.76
2023-04-15T02:26:32.621Z,85.51
2023-04-15T02:28:59.687Z,85.90
2023-04-15T02:31:26.513Z,85.77
2023-04-15T02:33:53.009Z,86.09
2023-04-15T02:36:21.178Z,86.83
2023-04-15T02:38:47.663Z,86.66
2023-04-15T02:41:15.634Z,87.14
2023-04-15T02:43:44.215Z,87.13
2023-04-15T02:46:14.599Z,87.23
2023-04-15T02:48:41.628Z,87.23
2023-04-15T02:51:31.201Z,87.10
2023-04-15T02:53:58.209Z,87.00
2023-04-15T02:56:24.643Z,87.73
2023-04-15T02:58:51.346Z,87.52
2023-04-15T03:01:17.859Z,88.11
2023-04-15T03:03:44.498Z,88.55
2023-04-15T03:06:10.960Z,88.23
2023-04-15T03:08:37.386Z,89.46
2023-04-15T03:11:04.638Z,88.96
2023-04-15T03:13:32.307Z,89.77
2023-04-15T03:16:02.960Z,89.73
2023-04-15T03:18:31.051Z,90.31
2023-04-15T03:21:01.433Z,90.39
2023-04-15T03:23:28.692Z,90.72
2023-04-15T03:25:57.723Z,90.99
2023-04-15T03:28:24.535Z,90.87
2023-04-15T03:30:51.489Z,90.66
2023-04-15T03:33:17.949Z,91.08
2023-04-15T03:35:44.495Z,91.31
2023-04-15T03:38:10.878Z,90.74
2023-04-15T03:40:37.304Z,91.53
2023-04-15T03:43:03.672Z,90.67
2023-04-15T03:45:30.339Z,90.84
2023-04-15T03:48:03.565Z,91.26
2023-04-15T03:50:37.741Z,91.01
2023-04-15T03:53:04.163Z,90.49
2023-04-15T03:55:30.597Z,91.17
2023-04-15T03:57:57.065Z,90.96
2023-04-15T04:00:23.517Z,91.24
2023-04-15T04:02:49.996Z,91.31
2023-04-15T04:05:16.692Z,91.28
2023-04-15T04:07:43.115Z,91.42
2023-04-15T04:10:09.708Z,91.05
2023-04-15T04:12:36.239Z,91.49
2023-04-15T04:15:02.979Z,91.40
2023-04-15T04:17:29.501Z,91.19
2023-04-15T04:19:56.043Z,90.93
2023-04-15T04:22:24.094Z,91.52
2023-04-15T04:24:50.860Z,91.03
2023-04-15T04:27:17.346Z,91.04
2023-04-15T04:29:43.932Z,90.89
2023-04-15T04:32:10.681Z,90.73
2023-04-15T04:34:37.176Z,90.43
2023-04-15T04:37:03.632Z,90.38
2023-04-15T04:39:30.047Z,90.18
2023-04-15T04:41:56.490Z,88.72
2023-04-15T04:44:22.925Z,88.68
2023-04-15T04:46:49.329Z,89.08
2023-04-15T04:49:15.747Z,89.77
2023-04-15T04:51:42.234Z,89.54
2023-04-15T04:54:08.628Z,89.34
2023-04-15T04:56:35.008Z,88.85
2023-04-15T04:59:01.941Z,89.27
2023-04-15T05:01:28.581Z,89.23
2023-04-15T05:03:55.414Z,88.67
2023-04-15T05:06:21.989Z,88.83
2023-04-15T05:08:48.621Z,88.44
2023-04-15T05:11:15.000Z,88.28
2023-04-15T05:13:41.390Z,87.83
2023-04-15T05:16:08.303Z,87.82
2023-04-15T05:18:35.040Z,87.41
2023-04-15T05:21:02.588Z,87.07
2023-04-15T05:23:29.127Z,87.66
2023-04-15T05:25:55.596Z,87.50
2023-04-15T05:28:22.066Z,87.71
2023-04-15T05:30:48.809Z,87.58
2023-04-15T05:33:15.778Z,87.53
2023-04-15T05:35:42.196Z,86.62
2023-04-15T05:38:08.608Z,86.98
2023-04-15T05:40:35.002Z,87.53
2023-04-15T05:43:01.474Z,88.01
2023-04-15T05:45:27.928Z,87.10
2023-04-15T05:47:54.608Z,87.71
2023-04-15T05:50:22.024Z,87.06
2023-04-15T05:52:48.484Z,86.84
2023-04-15T05:55:14.863Z,87.02
2023-04-15T05:57:41.395Z,87.03
2023-04-15T06:00:08.261Z,86.77
2023-04-15T06:02:37.855Z,86.79
2023-04-15T06:05:09.656Z,86.09
2023-04-15T06:07:37.013Z,86.36
2023-04-15T06:10:05.721Z,85.89
2023-04-15T06:12:32.187Z,86.16
2023-04-15T06:15:00.026Z,86.01
2023-04-15T06:17:26.877Z,87.07
2023-04-15T06:19:56.503Z,86.97
2023-04-15T06:22:23.986Z,87.61
2023-04-15T06:24:51.505Z,87.56
2023-04-15T06:27:17.989Z,88.17
2023-04-15T06:29:44.778Z,88.34
2023-04-15T06:32:12.938Z,88.08
2023-04-15T06:34:39.402Z,88.61
2023-04-15T06:37:06.538Z,89.15
2023-04-15T06:39:33.129Z,89.56
2023-04-15T06:41:59.600Z,89.61
2023-04-15T06:44:26.160Z,89.96
2023-04-15T06:46:52.668Z,89.93
2023-04-15T06:49:19.045Z,90.27
2023-04-15T06:51:45.498Z,90.43
2023-04-15T06:54:11.974Z,90.23
2023-04-15T06:56:38.440Z,90.40
2023-04-15T06:59:04.843Z,91.08
2023-04-15T07:01:31.284Z,91.06
2023-04-15T07:03:57.744Z,90.93
2023-04-15T07:06:24.729Z,90.68
2023-04-15T07:08:51.284Z,90.06
2023-04-15T07:11:18.421Z,89.62
2023-04-15T07:13:44.874Z,88.87
2023-04-15T07:16:11.320Z,85.90
2023-04-15T07:18:37.940Z,85.03
2023-04-15T07:21:04.584Z,83.97
2023-04-15T07:23:31.364Z,82.31
2023-04-15T07:25:57.753Z,79.97
2023-04-15T07:28:24.169Z,75.56
2023-04-15T07:30:50.579Z,73.09
2023-04-15T07:33:17.024Z,69.81
2023-04-15T07:35:43.545Z,68.05
2023-04-15T07:38:09.984Z,64.86
2023-04-15T07:40:36.433Z,62.90
2023-04-15T07:43:03.446Z,61.79
2023-04-15T07:45:30.050Z,60.18
2023-04-15T07:47:56.696Z,60.52
2023-04-15T07:50:23.620Z,61.96
2023-04-15T07:52:51.454Z,62.11
2023-04-15T07:55:19.988Z,61.62
2023-04-15T07:57:47.404Z,63.49
2023-04-15T08:00:14.864Z,62.27
2023-04-15T08:02:42.685Z,61.46
2023-04-15T08:05:10.738Z,59.70
2023-04-15T08:07:38.395Z,58.31
2023-04-15T08:10:05.631Z,59.66
2023-04-15T08:12:32.113Z,58.71
2023-04-15T08:14:58.757Z,58.12
2023-04-15T08:17:25.460Z,57.27
2023-04-15T08:19:52.195Z,56.38
2023-04-15T08:22:20.100Z,55.47
2023-04-15T08:24:47.668Z,56.30
2023-04-15T08:27:14.170Z,56.37
2023-04-15T08:29:40.669Z,55.20
2023-04-15T08:32:07.593Z,56.30
2023-04-15T08:34:34.738Z,55.03
2023-04-15T08:37:01.277Z,56.94
2023-04-15T08:39:28.184Z,58.28
2023-04-15T08:42:07.088Z,60.17
2023-04-15T08:44:34.914Z,61.59
2023-04-15T08:47:02.752Z,62.09
2023-04-15T08:49:30.446Z,63.20
2023-04-15T08:51:59.662Z,62.86
2023-04-15T08:54:27.187Z,63.48
2023-04-15T08:56:54.336Z,64.49
2023-04-15T08:59:24.121Z,64.24
2023-04-15T09:01:53.550Z,66.01
2023-04-15T09:04:20.116Z,64.58
2023-04-15T09:06:46.989Z,65.58
2023-04-15T09:09:14.486Z,64.71
2023-04-15T09:11:42.092Z,64.95
2023-04-15T09:14:08.534Z,65.61
2023-04-15T09:16:57.766Z,65.34
2023-04-15T09:19:25.675Z,67.22
2023-04-15T09:21:59.093Z,66.68
2023-04-15T09:24:33.628Z,66.59
2023-04-15T09:27:00.466Z,67.73
2023-04-15T09:29:27.007Z,67.63
2023-04-15T09:31:53.544Z,68.63
2023-04-15T09:34:21.399Z,68.47
2023-04-15T09:36:49.216Z,69.04
2023-04-15T09:39:16.159Z,67.85
2023-04-15T09:41:43.656Z,68.28
2023-04-15T09:44:26.249Z,68.10
2023-04-15T09:46:52.784Z,67.27
2023-04-15T09:49:20.693Z,69.65
2023-04-15T09:51:58.008Z,67.12
2023-04-15T09:54:37.863Z,68.69
2023-04-15T09:57:09.864Z,70.54
2023-04-15T09:59:36.414Z,69.24
2023-04-15T10:02:06.312Z,68.83
2023-04-15T10:04:36.597Z,68.66
2023-04-15T10:07:05.153Z,66.59
2023-04-15T10:09:33.662Z,68.05
2023-04-15T10:12:01.133Z,67.12
2023-04-15T10:14:32.245Z,67.72
2023-04-15T10:17:01.925Z,66.80
2023-04-15T10:19:32.526Z,66.81
2023-04-15T10:21:59.697Z,65.69
2023-04-15T10:24:27.722Z,66.29
2023-04-15T10:26:55.282Z,66.21
2023-04-15T10:29:23.274Z,65.07
2023-04-15T10:31:50.079Z,66.45
2023-04-15T10:34:18.417Z,65.12
2023-04-15T10:36:46.928Z,65.26
2023-04-15T10:39:42.925Z,65.56
2023-04-15T10:42:10.737Z,66.60
2023-04-15T10:44:38.781Z,66.75
2023-04-15T10:47:12.097Z,67.01
2023-04-15T10:49:46.807Z,64.74
2023-04-15T10:52:15.549Z,65.84
2023-04-15T10:54:42.125Z,66.09
2023-04-15T10:57:14.948Z,65.58
2023-04-15T11:00:06.613Z,65.13
2023-04-15T11:02:40.045Z,65.75
2023-04-15T11:05:07.431Z,65.10
2023-04-15T11:07:38.218Z,63.82
2023-04-15T11:10:13.659Z,63.77
2023-04-15T11:12:41.283Z,64.38
2023-04-15T11:15:30.452Z,64.33
2023-04-15T11:17:58.276Z,65.06
2023-04-15T11:20:25.282Z,63.77
2023-04-15T11:23:08.383Z,64.35
2023-04-15T11:25:40.199Z,62.80
2023-04-15T11:28:07.578Z,63.12
2023-04-15T11:30:35.693Z,63.62
2023-04-15T11:33:07.023Z,63.82
2023-04-15T11:35:33.594Z,62.21
2023-04-15T11:38:08.761Z,60.54
2023-04-15T11:40:35.810Z,61.62
2023-04-15T11:43:09.439Z,59.59
2023-04-15T11:45:37.223Z,59.80
2023-04-15T11:48:13.287Z,60.34
2023-04-15T11:50:43.188Z,59.64
2023-04-15T11:53:11.873Z,61.32
2023-04-15T11:55:52.154Z,60.82
2023-04-15T11:58:23.954Z,60.81
2023-04-15T12:00:55.358Z,60.79
2023-04-15T12:03:39.697Z,60.59
2023-04-15T12:06:13.910Z,60.26
2023-04-15T12:08:55.494Z,59.01
2023-04-15T12:11:30.926Z,59.60
2023-04-15T12:14:02.705Z,60.57
2023-04-15T12:16:29.741Z,60.91
2023-04-15T12:18:58.790Z,63.39
2023-04-15T12:21:27.399Z,64.02
2023-04-15T12:23:55.745Z,64.04
2023-04-15T12:26:31.282Z,65.12
2023-04-15T12:29:02.261Z,63.59
2023-04-15T12:31:29.116Z,65.45
2023-04-15T12:33:56.741Z,64.20
2023-04-15T12:36:23.838Z,62.08
2023-04-15T12:38:50.459Z,62.45
2023-04-15T12:41:16.853Z,61.23
2023-04-15T12:43:49.200Z,62.70
2023-04-15T12:46:15.734Z,62.77
2023-04-15T12:48:42.508Z,62.59
2023-04-15T12:51:09.016Z,62.36
2023-04-15T12:53:35.590Z,63.65
2023-04-15T12:56:02.143Z,64.00
2023-04-15T12:58:28.793Z,63.82
2023-04-15T13:00:55.293Z,64.64
2023-04-15T13:03:21.748Z,65.00
2023-04-15T13:05:48.241Z,64.65
2023-04-15T13:08:14.734Z,65.51
2023-04-15T13:10:42.387Z,65.03
2023-04-15T13:13:08.938Z,65.58
2023-04-15T13:15:35.439Z,63.48
2023-04-15T13:18:02.050Z,64.59
2023-04-15T13:20:28.629Z,66.27
2023-04-15T13:22:55.166Z,66.77
2023-04-15T13:25:21.789Z,65.92
2023-04-15T13:27:48.189Z,64.30
2023-04-15T13:30:14.741Z,65.40
2023-04-15T13:32:41.238Z,65.03
2023-04-15T13:35:08.020Z,64.83
2023-04-15T13:37:34.414Z,66.25
2023-04-15T13:40:01.074Z,66.67
2023-04-15T13:42:27.557Z,67.96
2023-04-15T13:44:54.081Z,67.59
2023-04-15T13:47:20.720Z,67.93
2023-04-15T13:49:47.305Z,67.81
2023-04-15T13:52:13.713Z,67.77
2023-04-15T13:54:40.146Z,68.13
2023-04-15T13:57:06.875Z,69.26
2023-04-15T13:59:34.752Z,69.14
2023-04-15T14:02:01.724Z,69.52
2023-04-15T14:04:28.262Z,69.83
2023-04-15T14:06:54.850Z,70.45
2023-04-15T14:09:26.281Z,69.67
2023-04-15T14:11:52.919Z,70.70
2023-04-15T14:14:19.357Z,70.53
2023-04-15T14:16:45.844Z,70.93
2023-04-15T14:19:12.369Z,71.12
2023-04-15T14:21:38.806Z,71.57
2023-04-15T14:24:05.759Z,72.89
2023-04-15T14:26:32.416Z,73.04
2023-04-15T14:28:58.876Z,74.20
2023-04-15T14:31:25.451Z,74.10
2023-04-15T14:33:51.986Z,74.78
2023-04-15T14:36:18.500Z,77.18
2023-04-15T14:38:45.793Z,76.53
2023-04-15T14:41:13.270Z,77.56
2023-04-15T14:43:39.700Z,75.84
2023-04-15T14:46:06.415Z,77.81
2023-04-15T14:48:32.942Z,77.66
2023-04-15T14:50:59.546Z,77.25
2023-04-15T14:53:26.061Z,77.42
2023-04-15T14:55:52.464Z,77.15
2023-04-15T14:58:18.908Z,76.07
2023-04-15T15:00:45.911Z,76.38
2023-04-15T15:03:13.024Z,77.27
2023-04-15T15:05:41.194Z,77.41
2023-04-15T15:08:09.100Z,78.29
2023-04-15T15:10:49.307Z,78.95
2023-04-15T15:13:17.512Z,79.24
2023-04-15T15:15:44.031Z,78.93
2023-04-15T15:18:10.826Z,77.96
2023-04-15T15:20:37.258Z,79.39
2023-04-15T15:23:03.734Z,78.81
2023-04-15T15:25:30.316Z,79.91
2023-04-15T15:27:57.528Z,80.90
2023-04-15T15:30:24.088Z,81.23
2023-04-15T15:32:50.763Z,81.63
2023-04-15T15:35:17.328Z,81.65
2023-04-15T15:37:45.830Z,82.04
2023-04-15T15:40:12.556Z,81.30
2023-04-15T15:42:38.985Z,81.13
2023-04-15T15:45:05.996Z,81.34
2023-04-15T15:47:32.531Z,81.93
2023-04-15T15:50:00.293Z,82.71
2023-04-15T15:52:27.013Z,82.08
2023-04-15T15:54:53.406Z,82.43
2023-04-15T15:57:19.779Z,83.08
2023-04-15T15:59:46.286Z,83.26
2023-04-15T16:02:14.484Z,83.23
2023-04-15T16:04:43.086Z,84.29
2023-04-15T16:07:11.649Z,84.04
2023-04-15T16:09:40.432Z,84.23
2023-04-15T16:12:06.908Z,83.94
2023-04-15T16:14:33.285Z,84.22
2023-04-15T16:16:59.727Z,83.24
2023-04-15T16:19:26.222Z,83.54
2023-04-15T16:21:53.395Z,85.02
2023-04-15T16:24:19.853Z,85.04
2023-04-15T16:26:46.339Z,85.42
2023-04-15T16:29:12.788Z,85.12
2023-04-15T16:31:39.968Z,85.71
2023-04-15T16:34:06.436Z,84.82
2023-04-15T16:36:34.799Z,85.27
2023-04-15T16:39:01.344Z,85.37
2023-04-15T16:41:28.485Z,85.82
2023-04-15T16:43:56.792Z,85.71
2023-04-15T16:46:23.272Z,85.71
2023-04-15T16:48:49.668Z,86.50
2023-04-15T16:51:16.079Z,87.03
2023-04-15T16:53:42.519Z,86.40
2023-04-15T16:56:09.020Z,87.54
2023-04-15T16:58:35.445Z,87.17
2023-04-15T17:01:02.337Z,87.28
2023-04-15T17:03:28.984Z,87.26
2023-04-15T17:05:55.785Z,87.64
2023-04-15T17:08:22.170Z,87.55
2023-04-15T17:10:49.030Z,87.49
2023-04-15T17:13:15.615Z,87.63
2023-04-15T17:15:42.085Z,88.17
2023-04-15T17:18:09.198Z,88.30
2023-04-15T17:20:35.833Z,88.09
2023-04-15T17:23:02.319Z,88.19
2023-04-15T17:25:30.544Z,88.23
2023-04-15T17:27:56.974Z,88.42
2023-04-15T17:30:23.605Z,88.79
2023-04-15T17:32:51.400Z,88.33
2023-04-15T17:35:18.269Z,88.79
2023-04-15T17:37:46.238Z,88.30
2023-04-15T17:40:13.721Z,88.71
2023-04-15T17:42:41.249Z,88.94
2023-04-15T17:45:08.159Z,88.45
2023-04-15T17:47:34.627Z,89.26
2023-04-15T17:50:01.085Z,89.04
2023-04-15T17:52:27.582Z,89.27
2023-04-15T17:54:54.005Z,89.36
2023-04-15T17:57:20.567Z,89.37
2023-04-15T17:59:47.850Z,89.08
2023-04-15T18:02:15.051Z,89.16
2023-04-15T18:04:41.772Z,89.08
2023-04-15T18:07:08.670Z,89.75
2023-04-15T18:09:36.051Z,89.42
2023-04-15T18:12:04.345Z,89.38
2023-04-15T18:14:34.659Z,89.37
2023-04-15T18:17:04.735Z,89.69
2023-04-15T18:19:31.747Z,89.54
2023-04-15T18:22:00.135Z,89.93
2023-04-15T18:24:26.958Z,89.84
2023-04-15T18:26:53.883Z,89.90
2023-04-15T18:29:20.352Z,89.93
2023-04-15T18:31:46.903Z,89.65
2023-04-15T18:34:13.392Z,89.82
2023-04-15T18:36:39.959Z,90.33
2023-04-15T18:39:06.576Z,90.61
2023-04-15T18:41:33.235Z,90.81
2023-04-15T18:43:59.690Z,90.99
2023-04-15T18:46:26.228Z,90.56
2023-04-15T18:48:52.669Z,90.93
2023-04-15T18:51:19.100Z,91.19
2023-04-15T18:53:45.570Z,90.32
2023-04-15T18:56:12.058Z,90.19
2023-04-15T18:59:10.108Z,90.20
2023-04-15T19:01:24.883Z,90.01
2023-04-15T19:03:51.397Z,89.41
2023-04-15T19:06:17.879Z,89.80
2023-04-15T19:08:44.358Z,90.28
2023-04-15T19:11:10.952Z,90.28
2023-04-15T19:13:37.403Z,90.12
2023-04-15T19:16:04.075Z,89.13
2023-04-15T19:18:30.621Z,89.21
2023-04-15T19:20:57.574Z,89.32
2023-04-15T19:23:24.047Z,88.64
2023-04-15T19:25:50.431Z,88.18
2023-04-15T19:28:16.836Z,87.08
2023-04-15T19:30:43.238Z,86.35
2023-04-15T19:33:09.732Z,87.39
2023-04-15T19:35:38.161Z,87.74
2023-04-15T19:38:04.850Z,87.95
2023-04-15T19:40:31.237Z,87.67
2023-04-15T19:42:57.612Z,88.44
2023-04-15T19:45:24.047Z,86.53
2023-04-15T19:47:50.792Z,86.40
2023-04-15T19:50:17.811Z,85.93
2023-04-15T19:52:44.194Z,85.58
2023-04-15T19:55:10.632Z,86.44
2023-04-15T19:57:36.998Z,86.26
2023-04-15T20:00:03.693Z,86.49
2023-04-15T20:02:32.260Z,86.71
2023-04-15T20:04:58.738Z,86.74
2023-04-15T20:07:25.268Z,87.00
2023-04-15T20:09:52.359Z,86.04
2023-04-15T20:12:51.426Z,86.00
2023-04-15T20:15:07.289Z,84.15
2023-04-15T20:17:34.091Z,83.66
2023-04-15T20:20:00.617Z,83.64
2023-04-15T20:22:27.016Z,84.92
2023-04-15T20:24:53.435Z,83.85
2023-04-15T20:27:22.740Z,84.32
2023-04-15T20:29:49.788Z,84.98
2023-04-15T20:32:17.912Z,84.55
2023-04-15T20:34:44.807Z,86.01
2023-04-15T20:37:12.247Z,86.07
2023-04-15T20:39:40.584Z,87.18
2023-04-15T20:42:10.175Z,87.03
2023-04-15T20:44:38.571Z,85.28
2023-04-15T20:47:08.447Z,83.52
2023-04-15T20:49:36.528Z,83.61
2023-04-15T20:52:07.307Z,82.24
2023-04-15T20:54:34.009Z,81.14
2023-04-15T20:57:01.328Z,81.20
2023-04-15T20:59:28.017Z,81.55
2023-04-15T21:01:56.767Z,79.01
2023-04-15T21:04:24.335Z,79.28
2023-04-15T21:06:52.101Z,78.32
2023-04-15T21:09:18.781Z,77.05
2023-04-15T21:12:00.377Z,74.19
2023-04-15T21:14:27.287Z,73.18
2023-04-15T21:16:53.816Z,72.38
2023-04-15T21:19:20.197Z,75.10
2023-04-15T21:21:46.628Z,74.76
2023-04-15T21:24:13.003Z,73.85
2023-04-15T21:26:39.376Z,72.24
2023-04-15T21:29:07.906Z,71.34
2023-04-15T21:31:36.045Z,72.21
2023-04-15T21:34:02.482Z,70.52
2023-04-15T21:36:28.980Z,70.77
2023-04-15T21:38:55.349Z,70.13
2023-04-15T21:41:21.791Z,72.28
2023-04-15T21:43:48.421Z,70.11
2023-04-15T21:46:22.386Z,71.53
2023-04-15T21:48:52.583Z,72.77
2023-04-15T21:51:19.076Z,71.91
2023-04-15T21:53:45.580Z,71.90
2023-04-15T21:56:12.078Z,69.94
2023-04-15T21:58:38.499Z,68.92
2023-04-15T22:01:05.122Z,67.75
2023-04-15T22:03:33.886Z,67.48
2023-04-15T22:06:01.796Z,66.25
2023-04-15T22:08:28.334Z,67.58
2023-04-15T22:10:55.366Z,68.48
2023-04-15T22:13:21.735Z,67.67
2023-04-15T22:15:48.212Z,71.12
2023-04-15T22:18:14.774Z,71.10
2023-04-15T22:20:41.437Z,67.32
2023-04-15T22:23:08.904Z,68.95
2023-04-15T22:25:38.278Z,68.86
2023-04-15T22:28:09.649Z,69.84
2023-04-15T22:30:41.031Z,67.78
2023-04-15T22:33:09.285Z,68.24
2023-04-15T22:35:37.182Z,65.62
2023-04-15T22:38:04.882Z,62.10
2023-04-15T22:40:31.425Z,62.28
2023-04-15T22:42:57.918Z,63.89
2023-04-15T22:45:24.341Z,63.28
2023-04-15T22:47:50.810Z,61.67
2023-04-15T22:50:17.402Z,59.66
2023-04-15T22:52:46.094Z,61.38
2023-04-15T22:55:12.608Z,57.59
2023-04-15T22:57:39.000Z,54.09
2023-04-15T23:00:06.277Z,51.26
2023-04-15T23:02:33.298Z,52.26
2023-04-15T23:04:59.961Z,50.04
2023-04-15T23:07:28.949Z,48.70
2023-04-15T23:09:55.324Z,48.60
2023-04-15T23:12:21.707Z,47.38
2023-04-15T23:14:48.072Z,46.94
2023-04-15T23:17:14.485Z,44.91
2023-04-15T23:19:41.112Z,42.90
2023-04-15T23:22:10.398Z,46.30
2023-04-15T23:24:36.870Z,34.85
2023-04-15T23:27:03.408Z,34.56
2023-04-15T23:29:29.777Z,32.96
2023-04-15T23:31:56.912Z,31.33
2023-04-15T23:34:23.560Z,30.80
2023-04-15T23:36:49.958Z,30.06
2023-04-15T23:39:16.427Z,31.91
2023-04-15T23:41:42.864Z,34.41
2023-04-15T23:44:09.726Z,34.07
2023-04-15T23:46:36.181Z,31.79
2023-04-15T23:49:02.618Z,29.42
2023-04-15T23:51:29.043Z,28.37
2023-04-15T23:53:55.487Z,31.48
2023-04-15T23:56:21.855Z,29.25
2023-04-15T23:58:48.271Z,24.71
